Have a Safe July 4th! 

Flight Track Log - Related Links

Times and Time Zones

All times are in EDT time to prevent confusion due to time zone crossing. See the JBU736 flight status page for this flight to view local times or setup timezone preferences in your user account.

Time Position Orientation Groundspeed Altitude Reporting Facility
EDT Latitude Longitude Course Direction KTS MPH feet Rate Location/Type
Wed 10:03:37 AM 33.8500 -118.1833 304° West 170 196 1,800  Level Southern California TRACON
Wed 10:04:37 AM 33.8500 -118.2667 270° West 222 255 4,200 2,218 Climbing Southern California TRACON
Wed 10:06:00 AM 34.1037 -118.4506 289° West  Level Estimated
Wed 10:07:00 AM 34.1032 -118.5648 270° West  Level FlightAware Approximate
Wed 10:08:00 AM 34.1754 -118.6386 304° West  Level Estimated
Wed 10:10:39 AM 33.8020 -118.7700 270° West 100 115 17,400  Level FlightAware ADS-B
Wed 10:10:59 AM 33.8200 -118.7990 307° West 100 115 18,100 1,425 Climbing FlightAware ADS-B
Wed 10:11:59 AM 33.8710 -118.8670 312° West 356 410 19,300 750 Climbing FlightAware ADS-B
Wed 10:12:35 AM 33.9060 -118.9110 314° West 356 410 19,300  Level FlightAware ADS-B
Wed 10:13:11 AM 33.9400 -118.9560 312° West 356 410 19,300  Level FlightAware ADS-B
Wed 10:13:47 AM 33.9750 -119.0000 314° West 356 410 19,300  Level FlightAware ADS-B
Wed 10:14:22 AM 34.0080 -119.0430 313° West 356 410 19,300  Level FlightAware ADS-B
Wed 10:14:58 AM 34.0420 -119.0880 312° West 356 410 19,300 3,652 Level FlightAware ADS-B
Wed 10:17:49 AM 34.2880 -119.4530 309° West 356 410 31,900 3,635 Climbing FlightAware ADS-B
Wed 10:18:26 AM 34.3220 -119.5010 311° West 356 410 31,900  Level FlightAware ADS-B
Wed 10:19:02 AM 34.3550 -119.5470 311° West 356 410 31,900 1,663 Level FlightAware ADS-B
Wed 10:19:49 AM 34.4170 -119.6380 310° West 373 429 34,200 1,683 Climbing FlightAware ADS-B
Wed 10:20:24 AM 34.4500 -119.6850 310° West 373 429 34,200 1,040 Level FlightAware ADS-B
Wed 10:21:04 AM 34.4960 -119.7520 310° West 369 425 35,500 1,067 Climbing FlightAware ADS-B
Wed 10:21:54 AM 34.5500 -119.8190 314° West 379 436 35,800 207 Climbing FlightAware ADS-B
Wed 10:22:31 AM 34.5880 -119.8670 314° West 379 436 35,800 943 Level FlightAware ADS-B
Wed 10:23:04 AM 34.6530 -119.9270 323° Northwest 379 436 36,900 1,012 Climbing FlightAware ADS-B
Wed 10:23:54 AM 34.7130 -119.9900 319° Northwest 388 447 37,200 214 Climbing FlightAware ADS-B
Wed 10:24:28 AM 34.7520 -120.0320 319° Northwest 388 447 37,200  Level FlightAware ADS-B
Wed 10:25:06 AM 34.7960 -120.0780 319° Northwest 388 447 37,200  Level FlightAware ADS-B
Wed 10:25:40 AM 34.8350 -120.1200 319° Northwest 388 447 37,200  Level FlightAware ADS-B
Wed 10:26:16 AM 34.8760 -120.1640 319° Northwest 388 447 37,200  Level FlightAware ADS-B
Wed 10:26:54 AM 34.9200 -120.2100 319° Northwest 388 447 37,200  Level FlightAware ADS-B
Wed 10:27:30 AM 34.9620 -120.2540 319° Northwest 388 447 37,200  Level FlightAware ADS-B
Wed 10:28:07 AM 35.0040 -120.2990 319° Northwest 388 447 37,200  Level FlightAware ADS-B
Wed 10:28:44 AM 35.0470 -120.3440 319° Northwest 388 447 37,200  Level FlightAware ADS-B
Wed 10:29:20 AM 35.0880 -120.3880 319° Northwest 388 447 37,200  Level FlightAware ADS-B
Wed 10:29:57 AM 35.1310 -120.4340 319° Northwest 388 447 37,200  Level FlightAware ADS-B
Wed 10:30:33 AM 35.1720 -120.4780 319° Northwest 388 447 37,200  Level FlightAware ADS-B
Wed 10:31:09 AM 35.2140 -120.5220 319° Northwest 388 447 37,200  Level FlightAware ADS-B
Wed 10:31:46 AM 35.2560 -120.5670 319° Northwest 388 447 37,200  Level FlightAware ADS-B
Wed 10:32:23 AM 35.2990 -120.6120 320° Northwest 388 447 37,200  Level FlightAware ADS-B
Wed 10:33:00 AM 35.3420 -120.6580 319° Northwest 388 447 37,200 593 Level FlightAware ADS-B
Wed 10:33:44 AM 35.5369 -120.9081 319° Northwest 377 434 38,000 453 Climbing Oakland Center
Wed 10:34:46 AM 35.6119 -120.9931 317° Northwest 370 426 38,000  Level Oakland Center
Wed 10:35:47 AM 35.6875 -121.0764 318° Northwest 366 421 38,000 -344 Level Oakland Center
Wed 10:36:48 AM 35.7611 -121.1608 317° Northwest 363 418 37,300 -836 Descending Oakland Center
Wed 10:37:49 AM 35.8339 -121.2408 318° Northwest 355 409 36,300 -934 Descending Oakland Center
Wed 10:38:50 AM 35.9125 -121.3089 325° Northwest 349 402 35,400 -927 Descending Oakland Center
Wed 10:39:52 AM 35.9964 -121.3739 328° Northwest 353 406 34,400 -927 Descending Oakland Center
Wed 10:40:53 AM 36.0803 -121.4389 328° Northwest 355 409 33,500 -934 Descending Oakland Center
Wed 10:41:54 AM 36.1636 -121.5025 328° Northwest 353 406 32,500 -1,082 Descending Oakland Center
Wed 10:42:55 AM 36.2631 -121.5789 328° Northwest 351 404 31,300 -1,279 Descending Oakland Center
Wed 10:43:56 AM 36.3447 -121.6450 327° Northwest 352 405 29,900 -1,171 Descending Oakland Center
Wed 10:44:58 AM 36.4261 -121.7083 328° Northwest 347 399 28,900 -1,366 Descending Oakland Center
Wed 10:45:59 AM 36.5031 -121.7703 327° Northwest 334 384 27,100 -1,967 Descending Oakland Center
Wed 10:47:00 AM 36.5733 -121.8264 327° Northwest 330 380 24,900 -2,115 Descending Oakland Center
Wed 10:48:01 AM 36.6478 -121.8853 328° Northwest 322 371 22,800 -2,361 Descending Oakland Center
Wed 10:49:02 AM 36.7389 -121.9569 328° Northwest 322 371 20,100 -1,409 Descending Oakland Center
Wed 10:50:13 AM 36.8333 -121.9833 347° North 293 337 19,700 -934 Descending Northern Cal TRACON
Wed 10:51:04 AM 36.9011 -122.0042 346° North 295 339 18,200 -1,875 Descending Oakland Center
Wed 10:52:05 AM 36.9778 -122.0256 347° North 286 329 16,200 -1,902 Descending Oakland Center
Wed 10:53:07 AM 37.0564 -122.0469 348° North 288 331 14,300 -1,951 Descending Oakland Center
Wed 10:54:08 AM 37.1308 -122.0797 341° North 295 339 12,200 -1,672 Descending Oakland Center
Wed 10:55:09 AM 37.1633 -122.1686 295° West 285 328 10,900 -836 Descending Oakland Center
Wed 10:56:10 AM 37.1892 -122.2492 292° West 256 295 10,500 -787 Descending Oakland Center
Wed 10:57:11 AM 37.2233 -122.3131 304° West 238 274 9,300 -1,230 Descending Oakland Center
Wed 10:58:12 AM 37.2786 -122.3436 336° Northwest 226 260 8,000 -1,268 Descending Oakland Center
Wed 10:59:14 AM 37.3353 -122.3781 334° Northwest 227 261 6,700 -1,024 Descending Oakland Center
Wed 11:00:15 AM 37.3825 -122.3364 35° Northeast 251 289 5,900 -393 Descending Oakland Center
Wed 11:01:16 AM 37.3747 -122.2531 97° East 241 277 5,900  Level Oakland Center
Wed 11:02:17 AM 37.3678 -122.1703 96° East 239 275 5,900 121 Level Oakland Center
Wed 11:02:55 AM 37.4000 -122.1167 53° Northeast 233 268 6,100 -306 Climbing Northern Cal TRACON
Wed 11:03:55 AM 37.4500 -122.0833 28° Northeast 225 259 5,400 -947 Descending Northern Cal TRACON
Wed 11:04:49 AM 37.5000 -122.1167 332° Northwest 228 262 4,300 -1,129 Descending Northern Cal TRACON
Wed 11:05:20 AM 37.5114 -122.1431 299° West 225 259 3,800 -1,043 Descending Oakland Center
Wed 11:06:21 AM 37.5475 -122.2036 307° West 220 253 2,700 -984 Descending Oakland Center
Wed 11:07:22 AM 37.5706 -122.2614 297° West 202 232 1,800 -836 Descending Oakland Center
Wed 11:08:23 AM 37.5875 -122.3011 298° West 156 180 1,000 -689 Descending Oakland Center
Wed 11:09:24 AM 37.6042 -122.3411 298° West 139 160 400 -390 Descending Oakland Center
Wed 11:10:26 AM 37.6242 -122.3869 299° West 135 155 200 -194 Descending Oakland Center
Wed 11:12:00 AM 37.6167 -122.3667 322° Northwest  Level FlightAware Approximate

Login

Don't have an account? Register now (free) for customized features, flight alerts, and more!